Time;durP1;ratioP1;P1;durP2;ratioP2;P2;SDS_P1;SDS_P2;PMS_P1;PMS_P2;Temp;Humidity;BMP_temperature;BMP_pressure;BME280_temperature;BME280_humidity;BME280_pressure;Samples;Min_cycle;Max_cycle;Signal;HPM_P1;HPM_P2
2022/12/13 02:33:27;;;;;;;109.77;42.93;;;;;;;-2.70;100.00;99283.38;1779081;76;22751;-94
2022/12/13 02:36:07;;;;;;;113.53;44.33;;;;;;;-2.04;100.00;99280.91;1701127;78;85582;-64
2022/12/13 02:38:49;;;;;;;108.83;42.83;;;;;;;-1.63;100.00;99290.36;1666354;85;21201;-65
2022/12/13 02:41:43;;;;;;;88.35;37.33;;;;;;;-1.45;100.00;99288.59;1662813;84;21133;-65
2022/12/13 02:44:17;;;;;;;118.08;42.55;;;;;;;-1.34;100.00;99300.63;1664676;84;21077;-66
2022/12/13 02:46:53;;;;;;;107.50;42.35;;;;;;;-1.32;100.00;99298.05;1675245;85;21032;-66
2022/12/13 02:49:20;;;;;;;83.47;38.00;;;;;;;-1.10;100.00;99302.30;1673090;84;21080;-64
2022/12/13 02:51:46;;;;;;;84.97;37.70;;;;;;;-0.94;100.00;99312.15;1675155;84;21337;-67
2022/12/13 02:54:13;;;;;;;74.77;33.88;;;;;;;-0.80;100.00;99306.92;1672430;84;21569;-66
2022/12/13 02:56:40;;;;;;;69.25;32.25;;;;;;;-0.75;100.00;99309.05;1712820;82;21025;-65
2022/12/13 02:59:11;;;;;;;65.62;31.65;;;;;;;-0.57;100.00;99305.97;1700264;83;21195;-65
2022/12/13 03:01:55;;;;;;;74.25;34.90;;;;;;;-0.29;100.00;99317.01;1682721;82;21036;-64
2022/12/13 03:08:01;;;;;;;71.00;32.90;;;;;;;-0.15;100.00;99315.63;1639070;86;21137;-65
2022/12/13 03:10:36;;;;;;;66.15;30.70;;;;;;;-0.35;100.00;99324.36;1638543;85;21651;-64
2022/12/13 03:15:58;;;;;;;58.48;27.90;;;;;;;-0.38;100.00;99326.97;1636826;86;21538;-65
2022/12/13 03:18:26;;;;;;;70.37;31.00;;;;;;;-0.27;100.00;99322.59;1633822;87;22169;-67
2022/12/13 03:21:03;;;;;;;68.45;31.35;;;;;;;-0.30;100.00;99323.92;1636857;86;21254;-66
2022/12/13 03:23:30;;;;;;;73.05;32.42;;;;;;;-0.24;100.00;99326.45;1633161;85;21070;-66
2022/12/13 03:26:09;;;;;;;55.75;26.90;;;;;;;-0.23;100.00;99319.12;1623146;86;21717;-66
2022/12/13 03:28:36;;;;;;;53.92;26.97;;;;;;;-0.07;100.00;99321.59;1661598;86;21074;-66
2022/12/13 03:31:03;;;;;;;60.10;28.55;;;;;;;-0.12;100.00;99323.36;1682844;84;21639;-64
2022/12/13 03:33:30;;;;;;;54.38;26.75;;;;;;;-0.06;100.00;99319.00;1678783;84;20994;-66
2022/12/13 03:35:56;;;;;;;58.45;28.32;;;;;;;-0.04;100.00;99306.06;1696137;83;21087;-66
2022/12/13 03:38:23;;;;;;;58.78;29.67;;;;;;;0.12;100.00;99297.30;1697298;83;21111;-65
2022/12/13 03:40:55;;;;;;;51.85;26.05;;;;;;;0.03;100.00;99301.70;1697316;83;21010;-65
2022/12/13 03:43:21;;;;;;;56.00;28.55;;;;;;;-0.10;100.00;99290.56;1696755;83;22268;-65
2022/12/13 03:45:49;;;;;;;56.83;28.30;;;;;;;0.12;100.00;99289.53;1696660;83;21186;-65
2022/12/13 03:48:18;;;;;;;49.95;25.60;;;;;;;0.14;100.00;99296.86;1697232;83;21143;-66
2022/12/13 03:50:44;;;;;;;63.38;31.17;;;;;;;0.32;100.00;99300.15;1697093;83;21115;-66
2022/12/13 03:53:11;;;;;;;56.65;28.45;;;;;;;0.31;100.00;99295.86;1696865;83;21120;-66
2022/12/13 03:55:37;;;;;;;51.20;25.30;;;;;;;0.56;100.00;99292.60;1695150;83;21799;-65
2022/12/13 03:58:04;;;;;;;62.65;30.77;;;;;;;0.60;100.00;99292.55;1697040;83;21094;-66
2022/12/13 04:00:31;;;;;;;59.10;29.10;;;;;;;0.49;100.00;99288.36;1697157;83;21555;-65
2022/12/13 04:02:57;;;;;;;66.07;30.65;;;;;;;0.38;100.00;99284.12;1696967;83;21465;-67
2022/12/13 04:05:24;;;;;;;60.95;29.98;;;;;;;0.35;100.00;99285.89;1697144;83;21032;-66
2022/12/13 04:07:51;;;;;;;54.80;26.00;;;;;;;0.25;100.00;99292.02;1696659;83;21090;-66
2022/12/13 04:10:18;;;;;;;56.35;27.98;;;;;;;0.27;100.00;99290.27;1697104;83;21100;-67
2022/12/13 04:15:29;;;;;;;65.42;32.35;;;;;;;0.46;100.00;99299.61;1697057;83;21004;-67
2022/12/13 04:17:56;;;;;;;70.70;34.80;;;;;;;0.65;100.00;99300.73;1697127;83;21048;-66
2022/12/13 04:20:23;;;;;;;55.28;27.50;;;;;;;0.58;100.00;99294.30;1696425;83;21324;-65
2022/12/13 04:22:49;;;;;;;65.83;31.65;;;;;;;0.40;100.00;99294.48;1696454;83;21021;-66
2022/12/13 04:25:16;;;;;;;55.33;27.30;;;;;;;0.53;100.00;99302.56;1697340;84;21182;-65
2022/12/13 04:27:45;;;;;;;60.80;29.87;;;;;;;0.48;100.00;99297.83;1697188;83;21148;-65
2022/12/13 04:30:12;;;;;;;61.23;27.93;;;;;;;0.38;100.00;99298.81;1696668;83;21013;-66
2022/12/13 04:32:39;;;;;;;62.08;30.43;;;;;;;0.35;100.00;99301.44;1696966;83;21878;-65
2022/12/13 04:35:07;;;;;;;60.95;30.02;;;;;;;0.26;100.00;99298.92;1696400;83;21026;-65
2022/12/13 04:37:35;;;;;;;57.27;27.02;;;;;;;0.33;100.00;99295.41;1696657;83;21057;-65
2022/12/13 04:40:02;;;;;;;53.45;25.90;;;;;;;0.53;100.00;99301.67;1708007;82;21530;-64
2022/12/13 04:44:56;;;;;;;56.93;27.20;;;;;;;-0.20;100.00;99296.69;1788050;80;27434;-92
2022/12/13 04:47:44;;;;;;;59.73;28.73;;;;;;;0.32;100.00;99293.67;1760004;81;20914;-93
2022/12/13 04:50:21;;;;;;;55.30;27.20;;;;;;;0.46;100.00;99298.73;1745436;81;21282;-93
2022/12/13 04:53:00;;;;;;;54.60;26.27;;;;;;;0.44;100.00;99302.65;1761027;81;20930;-93
2022/12/13 04:55:36;;;;;;;52.35;26.80;;;;;;;0.55;100.00;99302.11;1779686;80;89852;-65
2022/12/13 04:58:02;;;;;;;61.28;30.43;;;;;;;0.59;100.00;99296.00;1790398;80;20965;-66
2022/12/13 05:00:29;;;;;;;61.58;29.87;;;;;;;0.58;100.00;99302.07;1790525;80;20964;-65
2022/12/13 05:02:55;;;;;;;54.38;26.87;;;;;;;0.52;100.00;99296.09;1790904;80;21524;-64
2022/12/13 05:05:23;;;;;;;61.10;30.05;;;;;;;0.46;100.00;99299.61;1790379;80;20965;-65
2022/12/13 05:07:50;;;;;;;61.75;28.67;;;;;;;0.34;100.00;99306.17;1790349;80;20965;-65
2022/12/13 05:10:16;;;;;;;49.33;24.10;;;;;;;0.45;100.00;99304.80;1790598;80;21590;-66
2022/12/13 05:12:43;;;;;;;64.20;31.50;;;;;;;0.51;100.00;99312.08;1790522;80;22188;-65
2022/12/13 05:15:10;;;;;;;57.27;28.10;;;;;;;0.65;100.00;99313.23;1790073;80;21089;-65
2022/12/13 05:17:36;;;;;;;60.58;29.98;;;;;;;0.50;100.00;99313.38;1762859;80;21004;-65
2022/12/13 05:20:06;;;;;;;66.37;34.00;;;;;;;0.47;100.00;99316.86;1758946;80;21063;-66
2022/12/13 05:22:34;;;;;;;73.97;38.70;;;;;;;0.52;100.00;99321.55;1759327;80;21005;-66
2022/12/13 05:25:01;;;;;;;74.37;36.10;;;;;;;0.62;100.00;99327.09;1759137;81;21231;-64
2022/12/13 05:27:27;;;;;;;56.42;30.62;;;;;;;0.69;100.00;99332.19;1759115;80;21131;-66
2022/12/13 05:29:54;;;;;;;64.30;33.75;;;;;;;0.67;100.00;99323.16;1758894;81;21037;-66
2022/12/13 05:32:21;;;;;;;66.07;33.90;;;;;;;0.55;100.00;99324.55;1759184;81;21097;-66
2022/12/13 05:34:47;;;;;;;66.65;31.07;;;;;;;0.49;100.00;99338.43;1759135;81;21033;-66
2022/12/13 05:37:13;;;;;;;63.23;32.30;;;;;;;0.42;100.00;99340.66;1759002;81;21036;-66
2022/12/13 05:39:40;;;;;;;67.72;33.15;;;;;;;0.40;100.00;99338.52;1771259;80;21613;-66
2022/12/13 05:42:06;;;;;;;63.90;30.92;;;;;;;0.38;100.00;99336.37;1783606;80;21068;-65
2022/12/13 05:44:33;;;;;;;50.48;23.92;;;;;;;0.36;100.00;99327.30;1786528;79;21068;-64
2022/12/13 05:47:00;;;;;;;70.30;33.80;;;;;;;0.26;100.00;99342.51;1789296;80;21034;-66
2022/12/13 05:49:26;;;;;;;73.57;35.23;;;;;;;0.35;100.00;99348.06;1789329;79;21580;-66
2022/12/13 05:51:53;;;;;;;62.83;31.40;;;;;;;0.41;100.00;99346.28;1789236;80;21163;-66
2022/12/13 05:54:20;;;;;;;89.25;40.15;;;;;;;0.50;100.00;99337.55;1787049;80;21037;-66
2022/12/13 05:56:46;;;;;;;76.53;37.13;;;;;;;0.51;100.00;99338.42;1780688;80;21006;-66
2022/12/13 05:59:14;;;;;;;53.10;28.00;;;;;;;0.57;100.00;99325.39;1780876;80;20994;-65
2022/12/13 06:01:40;;;;;;;75.08;37.45;;;;;;;0.58;100.00;99319.36;1780683;79;21637;-65
2022/12/13 06:04:07;;;;;;;64.37;32.98;;;;;;;0.76;100.00;99317.00;1780473;80;21126;-65
2022/12/13 06:10:39;;;;;;;61.25;29.40;;;;;;;0.71;100.00;99320.08;1789072;79;21069;-65
2022/12/13 06:13:06;;;;;;;71.85;34.00;;;;;;;0.63;100.00;99322.31;1798863;79;21411;-66
2022/12/13 06:15:33;;;;;;;77.12;34.38;;;;;;;0.75;100.00;99321.77;1803329;79;21084;-65
2022/12/13 10:46:00;;;;;;;61.07;30.73;;;;;;;-0.35;100.00;99337.29;1770866;75;89046;-67
2022/12/13 10:48:50;;;;;;;60.28;31.00;;;;;;;0.38;100.00;99340.25;1735296;81;21045;-65
2022/12/13 10:51:19;;;;;;;56.37;29.98;;;;;;;0.63;100.00;99328.80;1742264;81;21172;-67
2022/12/13 10:53:53;;;;;;;62.83;31.48;;;;;;;0.90;100.00;99313.84;1750949;80;21105;-66
2022/12/13 10:56:24;;;;;;;55.85;28.92;;;;;;;1.22;100.00;99313.47;1737105;79;21592;-66
2022/12/13 10:59:11;;;;;;;60.28;31.60;;;;;;;1.33;100.00;99318.51;1729895;82;21486;-67
2022/12/13 11:01:37;;;;;;;55.83;30.37;;;;;;;1.13;100.00;99310.11;1703619;82;21133;-65
2022/12/13 11:04:07;;;;;;;55.65;29.77;;;;;;;1.15;100.00;99316.14;1747148;80;21106;-66
2022/12/13 11:06:43;;;;;;;53.30;29.95;;;;;;;1.58;100.00;99310.41;1761580;80;21516;-66
2022/12/13 11:09:29;;;;;;;53.28;28.20;;;;;;;1.80;100.00;99309.23;1740391;80;21041;-67
2022/12/13 11:12:03;;;;;;;54.38;27.98;;;;;;;1.92;100.00;99309.94;1692293;81;21062;-67
2022/12/13 11:53:07;;;;;;;40.83;23.57;;;;;;;2.01;100.00;99300.71;1869531;76;22607;-67
2022/12/13 11:55:41;;;;;;;35.52;19.80;;;;;;;2.00;100.00;99308.06;1736758;82;20987;-68
2022/12/13 11:58:34;;;;;;;40.55;22.73;;;;;;;1.96;100.00;99312.47;1736473;82;21540;-66
2022/12/13 12:01:13;;;;;;;37.80;20.12;;;;;;;1.95;100.00;99313.78;1736353;82;20945;-66
2022/12/13 12:04:10;;;;;;;38.83;21.57;;;;;;;1.92;100.00;99307.34;1736384;82;21048;-67
2022/12/13 12:06:52;;;;;;;44.00;23.10;;;;;;;1.92;100.00;99321.63;1736377;82;21626;-66
2022/12/13 12:09:20;;;;;;;41.70;23.65;;;;;;;1.83;100.00;99322.16;1736370;82;21072;-67
2022/12/13 12:12:25;;;;;;;43.38;22.48;;;;;;;1.82;100.00;99317.87;1736717;82;21863;-67
2022/12/13 12:15:19;;;;;;;40.17;21.77;;;;;;;1.68;100.00;99319.80;1755766;81;21057;-68
2022/12/13 12:17:46;;;;;;;39.27;21.68;;;;;;;1.52;100.00;99326.94;1736409;82;21559;-66
2022/12/13 12:20:15;;;;;;;44.03;24.05;;;;;;;1.50;100.00;99333.03;1736407;82;21012;-66
2022/12/13 12:23:05;;;;;;;38.45;19.35;;;;;;;1.51;100.00;99326.95;1736814;82;21064;-66
2022/12/13 12:25:46;;;;;;;40.40;21.42;;;;;;;1.43;100.00;99329.20;1736777;82;21247;-67
2022/12/13 12:29:05;;;;;;;37.30;20.35;;;;;;;1.19;100.00;99326.91;1736402;82;21583;-67
2022/12/13 12:31:48;;;;;;;38.98;21.45;;;;;;;1.13;100.00;99325.67;1736417;82;21052;-67
2022/12/13 12:34:38;;;;;;;34.48;19.87;;;;;;;1.24;100.00;99323.81;1719837;81;21088;-67
2022/12/13 12:37:28;;;;;;;37.63;20.70;;;;;;;1.34;100.00;99332.36;1702736;83;21115;-67
2022/12/13 12:40:31;;;;;;;42.03;22.60;;;;;;;1.28;100.00;99329.39;1723497;83;22241;-67
2022/12/13 12:43:09;;;;;;;34.50;19.50;;;;;;;1.24;100.00;99334.19;1706160;83;21018;-68
2022/12/13 12:46:07;;;;;;;;;;;;;;;1.33;100.00;99334.52;1723038;83;21006;-67
2022/12/13 12:49:15;;;;;;;36.05;21.17;;;;;;;1.31;100.00;99341.05;1686173;85;20142;-67
2022/12/13 12:52:02;;;;;;;33.88;19.27;;;;;;;1.18;100.00;99330.39;1686040;85;21571;-67
2022/12/13 12:54:49;;;;;;;30.17;17.12;;;;;;;1.18;100.00;99332.53;1686014;85;21161;-66
2022/12/13 12:57:57;;;;;;;39.73;22.07;;;;;;;1.48;100.00;99327.84;1668044;86;21012;-67
2022/12/13 13:00:25;;;;;;;38.48;20.80;;;;;;;1.04;100.00;99322.32;1657094;86;21043;-67
2022/12/13 13:03:20;;;;;;;35.92;20.57;;;;;;;1.22;100.00;99321.26;1667750;86;21560;-67
2022/12/13 13:05:58;;;;;;;33.35;20.60;;;;;;;1.11;100.00;99317.08;1665938;85;21059;-67
2022/12/13 13:08:41;;;;;;;36.90;20.70;;;;;;;1.22;100.00;99321.26;1685283;85;21260;-67
2022/12/13 13:11:08;;;;;;;32.60;17.95;;;;;;;1.21;100.00;99318.67;1675566;84;21073;-67
2022/12/13 13:13:48;;;;;;;37.40;20.10;;;;;;;1.23;100.00;99322.11;1685244;85;21060;-68
2022/12/13 13:16:32;;;;;;;36.65;19.77;;;;;;;1.07;100.00;99321.88;1657794;86;21141;-68
2022/12/13 13:19:18;;;;;;;39.05;21.50;;;;;;;1.05;100.00;99318.84;1657599;86;21078;-68
2022/12/13 13:21:55;;;;;;;34.80;20.45;;;;;;;0.89;100.00;99319.89;1657748;86;21175;-67
2022/12/13 13:24:28;;;;;;;34.75;17.85;;;;;;;1.04;100.00;99319.73;1657687;86;21041;-67
2022/12/13 13:27:01;;;;;;;35.15;19.82;;;;;;;1.04;100.00;99321.02;1658028;86;21117;-67
2022/12/13 13:29:30;;;;;;;33.75;19.32;;;;;;;0.79;100.00;99310.50;1645011;85;21069;-67
2022/12/13 13:32:18;;;;;;;32.90;18.23;;;;;;;0.85;100.00;99313.02;1657742;86;21089;-67
2022/12/13 13:34:48;;;;;;;32.30;17.90;;;;;;;0.97;100.00;99320.67;1657616;86;21286;-67
2022/12/13 13:37:27;;;;;;;37.25;20.05;;;;;;;0.92;100.00;99314.69;1657939;86;21116;-67
2022/12/13 13:40:03;;;;;;;34.88;20.60;;;;;;;0.96;100.00;99317.64;1677000;84;21041;-67
2022/12/13 13:42:31;;;;;;;32.63;18.10;;;;;;;0.99;100.00;99313.74;1690875;84;21121;-67
2022/12/13 13:45:22;;;;;;;34.83;19.65;;;;;;;0.98;100.00;99310.71;1690832;84;21062;-69
2022/12/13 13:48:11;;;;;;;36.10;19.25;;;;;;;0.87;100.00;99310.41;1691027;84;21181;-68
2022/12/13 13:51:21;;;;;;;30.92;17.30;;;;;;;0.96;100.00;99311.16;1690747;84;21047;-68
2022/12/13 13:54:35;;;;;;;35.17;20.02;;;;;;;0.66;100.00;99312.80;1690146;83;21081;-68
2022/12/13 13:57:23;;;;;;;36.73;19.90;;;;;;;0.70;100.00;99310.60;1654364;85;21489;-66
2022/12/13 14:00:18;;;;;;;40.30;21.48;;;;;;;0.77;100.00;99307.92;1675369;85;21041;-67
2022/12/13 14:03:09;;;;;;;35.40;18.80;;;;;;;0.82;100.00;99307.87;1675256;84;21141;-67
2022/12/13 14:06:18;;;;;;;43.02;20.97;;;;;;;0.70;100.00;99313.20;1674981;84;21086;-68
2022/12/13 14:09:13;;;;;;;42.38;23.87;;;;;;;0.73;100.00;99302.78;1675077;84;21570;-68
2022/12/13 14:12:18;;;;;;;41.20;21.93;;;;;;;0.57;100.00;99313.29;1666116;84;22253;-65
2022/12/13 14:14:58;;;;;;;37.05;21.37;;;;;;;0.67;100.00;99307.61;1675561;84;21101;-67
2022/12/13 14:18:04;;;;;;;;;;;;;;;0.62;100.00;99310.25;1678113;85;21311;-66
2022/12/13 18:11:28;;;;;;;21.33;12.60;;;;;;;0.06;100.00;99343.94;1869051;76;23835;-64
2022/12/13 18:13:55;;;;;;;18.30;10.88;;;;;;;0.14;100.00;99355.12;1825306;78;21029;-64
2022/12/13 18:16:25;;;;;;;20.85;11.15;;;;;;;0.10;100.00;99354.70;1825539;78;21281;-66
2022/12/13 18:18:55;;;;;;;16.90;11.28;;;;;;;0.11;100.00;99360.30;1825825;78;20949;-66
2022/12/13 18:21:23;;;;;;;;;;;;;;;0.13;100.00;99366.33;1828592;78;21065;-66
2022/12/13 18:23:50;;;;;;;21.23;11.30;;;;;;;0.17;100.00;99362.85;1825800;77;20132;-66
2022/12/13 18:26:17;;;;;;;22.37;11.53;;;;;;;-0.02;100.00;99363.86;1825740;78;21037;-66
2022/12/13 18:28:44;;;;;;;21.55;11.00;;;;;;;0.12;100.00;99364.62;1825527;78;21774;-66
2022/12/13 18:31:17;;;;;;;17.85;9.88;;;;;;;0.14;100.00;99373.24;1825813;78;21039;-66
2022/12/13 18:33:49;;;;;;;19.20;10.30;;;;;;;0.16;100.00;99370.63;1825701;78;21509;-66
2022/12/13 18:36:16;;;;;;;14.68;9.38;;;;;;;0.20;100.00;99369.30;1826025;78;21033;-66
2022/12/13 18:38:43;;;;;;;26.80;13.13;;;;;;;-0.03;100.00;99386.27;1825250;78;21100;-65
2022/12/13 18:41:20;;;;;;;32.30;13.48;;;;;;;0.11;100.00;99378.42;1824296;78;21102;-66
2022/12/13 18:43:47;;;;;;;27.50;11.97;;;;;;;-0.02;100.00;99379.39;1823416;78;21046;-67
2022/12/13 18:46:15;;;;;;;26.60;12.37;;;;;;;0.12;100.00;99381.89;1823717;78;21038;-67
2022/12/13 18:48:41;;;;;;;18.73;10.03;;;;;;;0.26;100.00;99380.50;1823610;78;21078;-66
2022/12/13 18:51:09;;;;;;;16.07;8.90;;;;;;;0.54;100.00;99380.70;1823731;78;21061;-68
2022/12/13 18:53:37;;;;;;;16.02;8.65;;;;;;;0.34;100.00;99383.87;1813119;78;21669;-65
2022/12/13 18:56:07;;;;;;;16.30;7.72;;;;;;;0.20;100.00;99382.69;1791586;80;21062;-65
2022/12/13 18:58:35;;;;;;;9.90;6.92;;;;;;;0.35;100.00;99394.23;1791366;80;21054;-66
2022/12/13 19:01:03;;;;;;;13.18;7.42;;;;;;;0.40;100.00;99392.91;1791169;80;21038;-65
2022/12/13 19:03:30;;;;;;;10.60;6.33;;;;;;;0.57;100.00;99398.80;1791076;80;21098;-67
2022/12/13 19:05:59;;;;;;;13.72;7.25;;;;;;;0.69;100.00;99404.75;1791930;80;21151;-65
2022/12/13 19:08:27;;;;;;;15.53;6.10;;;;;;;0.69;100.00;99395.27;1757438;81;21550;-66
2022/12/13 19:10:55;;;;;;;11.53;5.83;;;;;;;0.47;100.00;99406.67;1757830;81;21594;-67
2022/12/13 19:13:23;;;;;;;12.88;7.05;;;;;;;0.49;100.00;99413.56;1757799;81;21008;-65
2022/12/13 19:15:51;;;;;;;11.35;5.55;;;;;;;0.41;100.00;99411.45;1758144;81;21547;-66
2022/12/13 19:18:18;;;;;;;9.13;5.40;;;;;;;0.25;100.00;99418.91;1757706;81;21655;-67
2022/12/13 19:20:50;;;;;;;8.13;5.10;;;;;;;0.08;100.00;99425.05;1757945;81;21054;-66
2022/12/13 19:23:16;;;;;;;7.53;4.90;;;;;;;0.31;100.00;99422.31;1757175;81;21678;-68
2022/12/13 19:25:44;;;;;;;9.68;5.55;;;;;;;0.35;100.00;99425.77;1757658;81;21077;-67
2022/12/13 19:28:13;;;;;;;9.03;5.22;;;;;;;0.18;100.00;99424.15;1757033;81;21059;-66
2022/12/13 19:30:43;;;;;;;10.35;5.50;;;;;;;0.40;100.00;99426.14;1757188;81;21543;-66
2022/12/13 19:33:09;;;;;;;7.37;4.97;;;;;;;0.37;100.00;99430.06;1728351;81;21027;-66
2022/12/13 19:35:37;;;;;;;10.38;6.08;;;;;;;0.37;100.00;99440.42;1757365;81;21064;-66
2022/12/13 19:38:04;;;;;;;8.60;5.45;;;;;;;0.63;100.00;99440.22;1757395;81;21036;-66
2022/12/13 19:40:31;;;;;;;7.92;5.50;;;;;;;0.42;100.00;99436.50;1720941;82;21547;-67
2022/12/13 19:42:58;;;;;;;8.63;5.25;;;;;;;0.25;100.00;99444.36;1757646;80;21125;-67
2022/12/13 19:45:27;;;;;;;9.23;4.92;;;;;;;-0.02;100.00;99442.38;1757275;81;21001;-66
2022/12/13 19:47:54;;;;;;;7.97;5.33;;;;;;;0.22;100.00;99452.60;1757867;81;21048;-67
2022/12/13 19:50:22;;;;;;;8.93;5.25;;;;;;;0.08;100.00;99447.50;1757476;81;21041;-65
2022/12/13 19:52:53;;;;;;;9.53;5.42;;;;;;;0.15;100.00;99451.33;1757547;81;21002;-66
2022/12/13 19:55:17;;;;;;;9.30;5.40;;;;;;;0.19;100.00;99458.22;1756826;81;21133;-65
2022/12/13 19:57:44;;;;;;;9.90;6.17;;;;;;;-0.18;100.00;99454.97;1757171;81;21036;-66
2022/12/13 20:00:13;;;;;;;10.50;6.03;;;;;;;-0.61;100.00;99462.86;1757191;81;21271;-66
2022/12/13 20:02:41;;;;;;;11.25;5.90;;;;;;;-0.52;100.00;99456.81;1757598;81;21111;-67
2022/12/13 20:05:08;;;;;;;10.53;6.25;;;;;;;-0.54;100.00;99459.83;1757179;81;21120;-67
2022/12/13 20:07:34;;;;;;;10.35;5.65;;;;;;;-0.63;100.00;99468.47;1757114;81;21763;-67
2022/12/13 20:10:01;;;;;;;13.32;6.62;;;;;;;-0.39;100.00;99467.55;1757227;81;21561;-67
2022/12/13 20:12:28;;;;;;;12.30;6.83;;;;;;;-0.58;100.00;99472.34;1757170;81;22165;-66
2022/12/13 20:14:54;;;;;;;15.18;6.67;;;;;;;-0.64;100.00;99470.64;1757261;81;21112;-66
2022/12/13 20:17:21;;;;;;;13.50;7.47;;;;;;;-0.76;100.00;99474.11;1757327;81;21091;-66
2022/12/13 20:19:47;;;;;;;12.75;7.05;;;;;;;-0.80;100.00;99476.70;1757174;81;21163;-66
2022/12/13 20:22:15;;;;;;;14.50;7.80;;;;;;;-0.74;100.00;99478.82;1757253;81;21037;-67
2022/12/13 20:24:44;;;;;;;13.93;7.05;;;;;;;-0.54;100.00;99483.11;1757277;81;21050;-67
2022/12/13 20:27:11;;;;;;;13.83;7.20;;;;;;;-0.89;100.00;99482.74;1757177;81;21104;-67
2022/12/13 20:29:39;;;;;;;15.57;8.13;;;;;;;-0.83;100.00;99482.72;1756994;81;21548;-66
2022/12/13 20:32:08;;;;;;;15.15;7.80;;;;;;;-0.87;100.00;99488.34;1757251;81;21258;-67
2022/12/13 20:34:35;;;;;;;13.43;7.12;;;;;;;-0.80;100.00;99492.22;1757081;81;21053;-66
2022/12/13 20:37:02;;;;;;;13.07;7.37;;;;;;;-0.93;100.00;99496.53;1757445;81;21076;-67
2022/12/13 20:39:30;;;;;;;13.07;8.17;;;;;;;-0.97;100.00;99496.09;1756369;81;21004;-66
2022/12/13 20:41:57;;;;;;;13.57;8.13;;;;;;;-0.99;100.00;99492.64;1755526;81;21046;-67
2022/12/13 20:44:24;;;;;;;13.10;7.47;;;;;;;-0.83;100.00;99493.05;1755835;81;21134;-67
2022/12/13 20:46:52;;;;;;;12.77;7.70;;;;;;;-1.15;100.00;99504.70;1755446;81;20991;-67
2022/12/13 20:49:20;;;;;;;15.40;8.33;;;;;;;-0.96;100.00;99510.75;1755730;81;21059;-65
2022/12/13 20:51:47;;;;;;;13.63;7.90;;;;;;;-0.82;100.00;99502.98;1755616;81;21684;-66
2022/12/13 20:54:13;;;;;;;13.67;7.97;;;;;;;-1.11;100.00;99501.26;1755526;81;21097;-67
2022/12/13 20:56:40;;;;;;;15.00;8.50;;;;;;;-1.09;100.00;99509.44;1755741;81;21223;-67
2022/12/13 20:59:09;;;;;;;14.10;8.93;;;;;;;-1.41;100.00;99511.14;1755512;81;21023;-68
2022/12/13 21:01:41;;;;;;;15.30;8.27;;;;;;;-1.40;100.00;99511.56;1756145;81;21086;-67
2022/12/13 21:04:05;;;;;;;13.73;8.20;;;;;;;-1.18;100.00;99513.31;1754657;81;21532;-66
2022/12/13 21:06:39;;;;;;;15.73;9.27;;;;;;;-1.23;100.00;99512.45;1755957;81;21058;-67
2022/12/13 21:09:06;;;;;;;19.37;10.05;;;;;;;-1.20;100.00;99513.73;1755517;81;21218;-65
2022/12/13 21:11:37;;;;;;;15.00;8.63;;;;;;;-1.23;100.00;99513.75;1759170;81;21070;-67
2022/12/13 21:14:19;;;;;;;16.90;8.87;;;;;;;-1.18;100.00;99517.19;1761037;81;21071;-66
2022/12/13 21:16:49;;;;;;;16.97;8.67;;;;;;;-1.29;100.00;99517.61;1761128;81;21054;-66
2022/12/13 21:19:24;;;;;;;16.12;8.60;;;;;;;-1.22;100.00;99522.35;1761552;81;21057;-66
2022/12/13 21:21:51;;;;;;;16.77;9.10;;;;;;;-1.31;100.00;99525.81;1761160;81;21186;-66
2022/12/13 21:24:19;;;;;;;15.40;8.73;;;;;;;-1.43;100.00;99527.06;1761335;81;21046;-68
2022/12/13 21:26:46;;;;;;;14.93;8.63;;;;;;;-1.29;100.00;99525.36;1761134;81;21042;-67
2022/12/13 21:29:13;;;;;;;18.00;9.40;;;;;;;-1.35;100.00;99534.41;1761339;81;21545;-67
2022/12/13 21:31:41;;;;;;;17.00;8.60;;;;;;;-1.64;100.00;99525.30;1761178;81;21121;-67
2022/12/13 21:34:08;;;;;;;16.80;8.53;;;;;;;-1.74;100.00;99529.58;1761113;81;21927;-67
2022/12/13 21:36:42;;;;;;;17.50;9.57;;;;;;;-1.68;100.00;99537.33;1761276;81;21054;-66
2022/12/13 21:39:26;;;;;;;13.80;7.97;;;;;;;-1.89;100.00;99530.38;1761097;81;21111;-67
2022/12/13 21:41:53;;;;;;;18.83;9.50;;;;;;;-1.80;100.00;99532.13;1763076;81;21123;-67
2022/12/13 21:44:20;;;;;;;16.73;8.60;;;;;;;-1.48;100.00;99524.03;1762771;81;21068;-66
2022/12/13 21:46:47;;;;;;;17.63;9.67;;;;;;;-1.38;100.00;99527.92;1762780;81;21132;-65
2022/12/13 21:49:14;;;;;;;15.83;9.20;;;;;;;-1.07;100.00;99520.64;1762833;81;21056;-66
2022/12/13 21:51:40;;;;;;;18.27;8.93;;;;;;;-1.19;100.00;99519.36;1762766;81;21040;-66
2022/12/13 21:54:07;;;;;;;14.73;8.10;;;;;;;-1.51;100.00;99517.59;1762746;81;21527;-66
2022/12/13 21:59:24;;;;;;;15.63;8.47;;;;;;;-1.71;100.00;99516.67;1762928;81;21166;-65
2022/12/13 22:02:18;;;;;;;13.70;7.60;;;;;;;-1.54;100.00;99518.88;1762538;81;21508;-67
2022/12/13 22:04:52;;;;;;;15.90;8.63;;;;;;;-1.60;100.00;99520.15;1762496;81;21040;-65
2022/12/13 22:07:28;;;;;;;18.03;8.97;;;;;;;-1.51;100.00;99520.17;1745346;81;21001;-65
2022/12/13 22:09:55;;;;;;;15.77;9.00;;;;;;;-1.55;100.00;99528.76;1762804;80;21741;-66
2022/12/13 22:12:28;;;;;;;15.57;9.10;;;;;;;-2.05;100.00;99539.77;1762842;81;21540;-66
2022/12/13 22:14:55;;;;;;;14.57;7.87;;;;;;;-1.86;100.00;99545.00;1762466;81;21032;-65
2022/12/13 22:17:23;;;;;;;16.60;8.90;;;;;;;-1.84;100.00;99544.19;1762735;81;21538;-66
2022/12/13 22:19:50;;;;;;;13.97;8.40;;;;;;;-1.76;100.00;99551.95;1763159;81;21584;-66
2022/12/13 22:22:17;;;;;;;15.27;8.20;;;;;;;-2.04;100.00;99553.13;1762843;81;21057;-67
2022/12/13 22:24:45;;;;;;;19.87;9.60;;;;;;;-1.88;100.00;99550.19;1762832;81;21863;-66
2022/12/13 22:27:11;;;;;;;16.60;9.23;;;;;;;-1.84;100.00;99548.46;1762822;81;21627;-66
2022/12/13 22:29:38;;;;;;;15.77;9.53;;;;;;;-1.90;100.00;99538.55;1762560;81;21040;-67
2022/12/13 22:32:05;;;;;;;18.67;10.07;;;;;;;-1.71;100.00;99560.56;1762552;81;21049;-65
2022/12/13 22:34:31;;;;;;;16.10;9.03;;;;;;;-1.52;100.00;99564.94;1762492;81;21592;-65
2022/12/13 22:36:58;;;;;;;15.53;9.77;;;;;;;-1.80;100.00;99559.23;1762465;80;21284;-66
2022/12/13 22:39:25;;;;;;;19.67;9.97;;;;;;;-1.65;100.00;99563.17;1761823;81;21054;-66
2022/12/13 22:41:52;;;;;;;16.80;9.90;;;;;;;-1.55;100.00;99564.06;1760737;81;21503;-66
2022/12/13 22:44:19;;;;;;;18.17;10.03;;;;;;;-1.53;100.00;99556.75;1760673;81;21117;-66
2022/12/13 22:46:46;;;;;;;19.50;9.90;;;;;;;-1.40;100.00;99555.47;1761033;81;21118;-67
2022/12/13 22:49:13;;;;;;;15.47;8.67;;;;;;;-1.32;100.00;99550.76;1761263;81;21215;-66
2022/12/13 22:51:39;;;;;;;15.53;8.67;;;;;;;-1.59;100.00;99556.72;1760994;81;21094;-66
2022/12/13 22:54:06;;;;;;;17.90;9.90;;;;;;;-1.32;100.00;99555.07;1760998;81;21102;-67
2022/12/13 22:56:33;;;;;;;18.87;10.63;;;;;;;-1.03;100.00;99554.27;1760926;81;21499;-67
2022/12/13 22:59:05;;;;;;;19.07;10.77;;;;;;;-0.95;100.00;99553.81;1760886;81;21030;-66
2022/12/13 23:01:36;;;;;;;18.43;9.30;;;;;;;-0.67;100.00;99567.59;1761239;81;21141;-66
2022/12/13 23:04:02;;;;;;;17.13;10.17;;;;;;;-0.45;100.00;99561.98;1760813;81;21183;-66
2022/12/13 23:06:32;;;;;;;19.07;10.40;;;;;;;-1.09;100.00;99567.59;1761107;81;21101;-66
2022/12/13 23:09:01;;;;;;;20.87;10.00;;;;;;;-1.09;100.00;99572.75;1761320;81;21172;-65
2022/12/13 23:14:16;;;;;;;16.20;9.00;;;;;;;-1.17;100.00;99575.78;1761252;81;21286;-65
2022/12/13 23:16:43;;;;;;;20.32;9.98;;;;;;;-1.13;100.00;99574.92;1761393;81;21117;-65
2022/12/13 23:19:13;;;;;;;17.30;9.68;;;;;;;-1.12;100.00;99573.20;1761190;81;21105;-65
2022/12/13 23:21:40;;;;;;;16.70;9.20;;;;;;;-1.24;100.00;99579.22;1761600;81;21034;-65
2022/12/13 23:24:07;;;;;;;19.73;11.85;;;;;;;-1.28;100.00;99589.95;1761397;81;21093;-65
2022/12/13 23:26:34;;;;;;;23.33;12.53;;;;;;;-1.10;100.00;99583.97;1761274;81;21335;-66
2022/12/13 23:29:03;;;;;;;18.23;10.37;;;;;;;-1.42;100.00;99586.92;1761602;81;21022;-65
2022/12/13 23:31:33;;;;;;;21.13;12.27;;;;;;;-1.39;100.00;99582.61;1761305;81;21616;-65